createdAt,value
2018-11-01T00:04:22.864Z,5.60
2018-11-01T00:09:27.045Z,5.50
2018-11-01T00:14:31.104Z,5.40
2018-11-01T00:19:35.231Z,5.40
2018-11-01T00:24:40.273Z,5.40
2018-11-01T00:29:44.356Z,5.40
2018-11-01T00:34:48.428Z,5.30
2018-11-01T00:39:53.401Z,5.30
2018-11-01T00:44:57.509Z,5.30
2018-11-01T00:50:01.677Z,5.30
2018-11-01T00:55:06.627Z,5.10
2018-11-01T01:00:13.239Z,5.10
2018-11-01T01:05:17.466Z,4.90
2018-11-01T01:10:21.652Z,4.90
2018-11-01T01:15:25.773Z,4.90
2018-11-01T01:20:29.876Z,4.90
2018-11-01T01:25:34.038Z,5.00
2018-11-01T01:30:38.095Z,5.00
2018-11-01T01:35:42.278Z,5.00
2018-11-01T01:40:46.443Z,5.00
2018-11-01T01:45:50.501Z,5.00
2018-11-01T01:50:54.600Z,5.00
2018-11-01T01:55:58.700Z,5.00
2018-11-01T02:01:02.851Z,5.00
2018-11-01T02:06:06.951Z,4.90
2018-11-01T02:11:11.231Z,5.00
2018-11-01T02:16:15.777Z,5.20
2018-11-01T02:21:20.367Z,5.20
2018-11-01T02:26:24.803Z,5.20
2018-11-01T02:31:29.882Z,5.20
2018-11-01T02:36:34.000Z,5.10
2018-11-01T02:41:38.103Z,5.00
2018-11-01T02:46:42.297Z,4.90
2018-11-01T02:51:46.420Z,4.90
2018-11-01T02:56:50.600Z,4.80
2018-11-01T03:01:54.769Z,4.70
2018-11-01T03:06:58.817Z,4.70
2018-11-01T03:17:07.243Z,4.70
2018-11-01T03:22:11.376Z,4.60
2018-11-01T03:27:15.408Z,4.60
2018-11-01T03:32:19.506Z,4.60
2018-11-01T03:37:23.998Z,4.50
2018-11-01T03:42:28.186Z,4.50
2018-11-01T03:47:32.319Z,4.50
2018-11-01T03:52:36.632Z,4.50
2018-11-01T03:57:41.585Z,4.50
2018-11-01T04:02:47.032Z,4.80
2018-11-01T04:07:51.105Z,4.90
2018-11-01T04:12:55.183Z,4.70
2018-11-01T04:17:59.287Z,4.70
2018-11-01T04:23:03.374Z,4.50
2018-11-01T04:28:07.486Z,4.50
2018-11-01T04:33:11.650Z,4.60
2018-11-01T04:38:15.688Z,4.50
2018-11-01T04:43:19.801Z,4.60
2018-11-01T04:48:23.822Z,4.50
2018-11-01T04:53:28.015Z,4.50
2018-11-01T04:58:32.075Z,4.40
2018-11-01T05:03:36.199Z,4.30
2018-11-01T05:08:40.272Z,4.20
2018-11-01T05:13:44.314Z,4.10
2018-11-01T05:18:48.387Z,4.20
2018-11-01T05:23:52.464Z,4.10
2018-11-01T05:28:56.583Z,4.10
2018-11-01T05:34:00.642Z,4.20
2018-11-01T05:39:06.707Z,4.20
2018-11-01T05:44:10.788Z,4.40
2018-11-01T05:49:15.464Z,4.50
2018-11-01T05:54:19.579Z,4.50
2018-11-01T05:59:23.859Z,4.50
2018-11-01T06:04:27.935Z,4.50
2018-11-01T06:09:32.346Z,4.60
2018-11-01T06:14:36.344Z,4.60
2018-11-01T06:19:40.360Z,4.70
2018-11-01T06:24:44.372Z,4.90
2018-11-01T06:29:48.410Z,4.90
2018-11-01T06:34:55.750Z,4.90
2018-11-01T06:39:59.869Z,4.90
2018-11-01T06:45:04.000Z,4.90
2018-11-01T06:50:08.180Z,5.00
2018-11-01T06:55:12.501Z,5.10
2018-11-01T07:00:16.995Z,5.10
2018-11-01T07:05:21.162Z,5.20
2018-11-01T07:10:25.174Z,5.30
2018-11-01T07:15:29.258Z,5.40
2018-11-01T07:20:33.335Z,5.40
2018-11-01T07:25:37.556Z,5.40
2018-11-01T07:30:41.468Z,5.40
2018-11-01T07:35:45.543Z,5.50
2018-11-01T07:40:49.595Z,5.60
2018-11-01T07:45:53.664Z,5.60
2018-11-01T07:50:57.795Z,5.60
2018-11-01T07:56:01.907Z,5.70
2018-11-01T08:01:06.042Z,5.80
2018-11-01T08:06:10.269Z,6.00
2018-11-01T08:11:14.519Z,6.20
2018-11-01T08:16:18.697Z,6.40
2018-11-01T08:21:22.813Z,6.60
2018-11-01T08:26:26.778Z,6.70
2018-11-01T08:31:30.724Z,6.90
2018-11-01T08:36:34.880Z,7.10
2018-11-01T08:41:38.916Z,7.20
2018-11-01T08:46:43.021Z,7.40
2018-11-01T08:51:47.434Z,7.50
2018-11-01T08:56:51.496Z,7.70
2018-11-01T09:01:55.483Z,7.80
2018-11-01T09:06:59.738Z,7.80
2018-11-01T09:12:04.674Z,7.80
2018-11-01T09:17:10.751Z,7.90
2018-11-01T09:22:15.030Z,7.90
2018-11-01T09:27:19.323Z,8.00
2018-11-01T09:32:23.314Z,8.10
2018-11-01T09:37:27.248Z,8.20
2018-11-01T09:42:31.373Z,8.30
2018-11-01T09:47:35.957Z,8.30
2018-11-01T09:52:39.995Z,8.40
2018-11-01T09:57:44.043Z,8.40
2018-11-01T10:02:48.138Z,8.30
2018-11-01T10:07:52.098Z,8.30
2018-11-01T10:12:56.077Z,8.30
2018-11-01T10:18:00.594Z,8.30
2018-11-01T10:23:04.337Z,8.50
2018-11-01T10:28:08.300Z,8.70
2018-11-01T10:33:12.407Z,8.70
2018-11-01T10:38:16.902Z,8.70
2018-11-01T10:43:20.940Z,8.80
2018-11-01T10:48:24.993Z,8.80
2018-11-01T10:53:29.053Z,8.90
2018-11-01T10:58:33.102Z,8.90
2018-11-01T11:03:37.105Z,9.00
2018-11-01T11:08:41.259Z,9.20
2018-11-01T11:13:45.395Z,9.30
2018-11-01T11:18:49.444Z,9.40
2018-11-01T11:23:53.618Z,9.60
2018-11-01T11:28:57.945Z,9.60
2018-11-01T11:34:02.269Z,9.80
2018-11-01T11:39:09.544Z,9.80
2018-11-01T11:44:13.386Z,9.80
2018-11-01T11:49:17.482Z,9.80
2018-11-01T11:54:21.657Z,9.80
2018-11-01T11:59:25.665Z,9.90
2018-11-01T12:04:29.759Z,10.00
2018-11-01T12:09:34.030Z,10.00
2018-11-01T12:14:38.122Z,9.90
2018-11-01T12:19:42.240Z,9.80
2018-11-01T12:24:46.392Z,9.70
2018-11-01T12:29:50.543Z,9.70
2018-11-01T12:34:54.638Z,9.80
2018-11-01T12:39:58.742Z,9.80
2018-11-01T12:45:02.904Z,9.80
2018-11-01T12:50:08.929Z,9.90
2018-11-01T12:55:12.865Z,9.90
2018-11-01T13:00:16.950Z,10.00
2018-11-01T13:05:21.044Z,10.00
2018-11-01T13:10:25.049Z,10.00
2018-11-01T13:15:29.088Z,10.00
2018-11-01T13:20:33.190Z,10.00
2018-11-01T13:25:37.795Z,10.10
2018-11-01T13:30:41.909Z,10.10
2018-11-01T13:35:46.291Z,10.30
2018-11-01T13:40:50.565Z,10.20
2018-11-01T13:45:54.345Z,10.20
2018-11-01T13:50:58.522Z,10.20
2018-11-01T13:56:03.166Z,10.30
2018-11-01T14:01:07.357Z,10.30
2018-11-01T14:06:11.647Z,10.20
2018-11-01T14:11:15.716Z,10.20
2018-11-01T14:16:19.887Z,10.10
2018-11-01T14:21:24.825Z,10.10
2018-11-01T14:26:28.853Z,10.10
2018-11-01T14:31:32.873Z,10.00
2018-11-01T14:36:36.961Z,10.00
2018-11-01T14:41:41.323Z,10.00
2018-11-01T14:46:45.429Z,9.90
2018-11-01T14:51:49.581Z,9.90
2018-11-01T14:56:55.237Z,9.90
2018-11-01T15:01:57.979Z,10.40
2018-11-01T15:07:02.339Z,10.60
2018-11-01T15:12:06.888Z,10.70
2018-11-01T15:17:12.714Z,10.80
2018-11-01T15:22:18.143Z,10.80
2018-11-01T15:27:22.232Z,10.70
2018-11-01T15:32:29.238Z,10.50
2018-11-01T15:37:33.423Z,10.40
2018-11-01T15:42:37.508Z,10.30
2018-11-01T15:47:42.310Z,10.20
2018-11-01T15:52:46.807Z,10.10
2018-11-01T15:57:50.861Z,9.90
2018-11-01T16:02:55.227Z,9.60
2018-11-01T16:07:59.299Z,9.50
2018-11-01T16:13:03.402Z,9.30
2018-11-01T16:18:07.566Z,9.10
2018-11-01T16:23:12.238Z,8.80
2018-11-01T16:28:16.322Z,8.70
2018-11-01T16:33:20.492Z,8.50
2018-11-01T16:38:24.704Z,8.50
2018-11-01T16:43:31.256Z,8.20
2018-11-01T16:48:35.632Z,8.10
2018-11-01T16:53:40.015Z,8.00
2018-11-01T16:58:44.303Z,7.90
2018-11-01T17:03:48.400Z,7.90
2018-11-01T17:08:52.527Z,7.50
2018-11-01T17:13:56.654Z,7.40
2018-11-01T17:24:04.742Z,7.20
2018-11-01T17:29:09.098Z,7.20
2018-11-01T17:34:13.339Z,7.20
2018-11-01T17:39:18.588Z,7.30
2018-11-01T17:44:23.673Z,7.50
2018-11-01T17:49:28.160Z,7.60
2018-11-01T17:54:32.834Z,7.60
2018-11-01T17:59:37.019Z,7.50
2018-11-01T18:04:41.501Z,7.50
2018-11-01T18:09:45.580Z,7.50
2018-11-01T18:14:49.800Z,7.50
2018-11-01T18:19:53.989Z,7.70
2018-11-01T18:24:58.131Z,7.50
2018-11-01T18:30:02.402Z,7.60
2018-11-01T18:35:07.640Z,7.60
2018-11-01T18:40:18.924Z,7.70
2018-11-01T18:45:25.460Z,7.50
2018-11-01T18:50:30.195Z,7.30
2018-11-01T18:55:34.626Z,7.20
2018-11-01T19:00:39.040Z,7.10
2018-11-01T19:05:43.318Z,7.10
2018-11-01T19:10:47.678Z,7.00
2018-11-01T19:15:51.839Z,6.90
2018-11-01T19:20:56.115Z,6.70
2018-11-01T19:26:00.259Z,6.70
2018-11-01T19:31:04.490Z,6.70
2018-11-01T19:41:12.464Z,7.10
2018-11-01T19:46:17.147Z,7.10
2018-11-01T19:51:23.515Z,7.20
2018-11-01T19:56:27.795Z,7.10
2018-11-01T20:01:31.968Z,7.00
2018-11-01T20:06:36.192Z,7.00
2018-11-01T20:11:40.761Z,7.00
2018-11-01T20:16:44.923Z,7.00
2018-11-01T20:26:54.869Z,7.10
2018-11-01T20:32:00.482Z,7.00
2018-11-01T20:37:04.950Z,7.20
2018-11-01T20:42:11.109Z,7.20
2018-11-01T20:47:16.558Z,7.10
2018-11-01T20:52:20.936Z,7.10
2018-11-01T20:57:25.593Z,7.10
2018-11-01T21:02:29.920Z,7.00
2018-11-01T21:07:34.251Z,6.90
2018-11-01T21:17:42.720Z,6.80
2018-11-01T21:22:47.219Z,6.80
2018-11-01T21:27:52.741Z,6.80
2018-11-01T21:32:57.787Z,6.70
2018-11-01T21:38:05.007Z,6.60
2018-11-01T21:43:17.927Z,6.50
2018-11-01T21:48:25.490Z,6.50
2018-11-01T21:53:31.546Z,6.50
2018-11-01T21:58:37.653Z,6.50
2018-11-01T22:08:46.495Z,6.40
2018-11-01T22:18:54.420Z,6.40
2018-11-01T22:23:58.573Z,6.30
2018-11-01T22:34:06.555Z,6.10
2018-11-01T22:39:11.954Z,6.00
2018-11-01T22:54:25.694Z,5.30
2018-11-01T22:59:29.947Z,5.20
2018-11-01T23:04:34.418Z,5.20
2018-11-01T23:14:45.213Z,5.30
2018-11-01T23:19:49.312Z,5.20
2018-11-01T23:24:53.356Z,5.30
2018-11-01T23:29:57.714Z,5.30
2018-11-01T23:35:01.781Z,5.40
2018-11-01T23:40:11.636Z,5.40
2018-11-01T23:45:21.398Z,5.50
2018-11-01T23:50:30.162Z,5.50
2018-11-01T23:55:34.416Z,5.60
